Mondorf-les-Bains, Luxembourg
Current Conditions -  °F | °C
As of 8:50 AM on Friday 31 Oct 2014 (Local Time) from ELLX Reporting Station
Haze Haze  
Wind Chill: 52°   Ceiling: Unl
Heat Index: 52°   Visibility: 1.8mi
Dew Point: 52°   Wind: 2mph
Humidity: 100%   Direction: NA
Pressure: 30.27"   Gusts: NA
Location:  49.51°N, 6.28°E
Report Text: ELLX 310750Z VRB02KT 3000 BR NSC 11/11 Q1025 BECMG 5000
Loading
Personal Weather Stations






























Interactive Weather Map
Tropical Storm Tracking
New forecast layout! Learn more

10-Day Weather Forecast

Advertisements
Track Severe Weather on mobile